Time;durP1;ratioP1;P1;durP2;ratioP2;P2;SDS_P1;SDS_P2;PMS_P1;PMS_P2;Temp;Humidity;BMP_temperature;BMP_pressure;BME280_temperature;BME280_humidity;BME280_pressure;Samples;Min_cycle;Max_cycle;Signal;HPM_P1;HPM_P2
2021/07/06 00:02:01;;;;;;;;;;;15.50;99.90;;;;;;5061942;28;19948;-63
2021/07/06 00:04:58;;;;;;;;;;;15.50;99.90;;;;;;5065272;28;19940;-64
2021/07/06 00:07:48;;;;;;;;;;;15.50;99.90;;;;;;5056539;28;20039;-63
2021/07/06 00:10:39;;;;;;;;;;;15.40;99.90;;;;;;5078497;28;19925;-63
2021/07/06 00:13:27;;;;;;;;;;;15.50;99.90;;;;;;5055345;28;19924;-63
2021/07/06 00:16:16;;;;;;;;;;;15.40;99.90;;;;;;5054559;28;19929;-65
2021/07/06 00:19:09;;;;;;;;;;;15.40;99.90;;;;;;5055363;28;19960;-66
2021/07/06 00:21:59;;;;;;;;;;;15.40;99.90;;;;;;5074997;28;19912;-62
2021/07/06 00:24:48;;;;;;;;;;;15.40;99.90;;;;;;5048964;28;19955;-62
2021/07/06 00:27:37;;;;;;;;;;;15.40;99.90;;;;;;5063810;28;19919;-62
2021/07/06 00:30:25;;;;;;;;;;;15.30;99.90;;;;;;5058718;28;19947;-62
2021/07/06 00:33:14;;;;;;;;;;;15.30;99.90;;;;;;5073118;28;19925;-62
2021/07/06 00:36:06;;;;;;;;;;;15.30;99.90;;;;;;5076236;28;19964;-62
2021/07/06 00:38:54;;;;;;;;;;;15.30;99.90;;;;;;5072481;28;19924;-63
2021/07/06 00:41:44;;;;;;;;;;;15.30;99.90;;;;;;5079406;28;19925;-63
2021/07/06 00:44:33;;;;;;;;;;;15.20;99.90;;;;;;5073868;28;20377;-63
2021/07/06 00:47:30;;;;;;;;;;;15.20;99.90;;;;;;5068740;28;19909;-62
2021/07/06 00:50:19;;;;;;;;;;;15.30;99.90;;;;;;5093305;28;19913;-62
2021/07/06 00:53:10;;;;;;;;;;;15.30;99.90;;;;;;5061856;28;19929;-63
2021/07/06 00:55:59;;;;;;;;;;;15.30;99.90;;;;;;5073943;28;19925;-62
2021/07/06 01:02:06;;;;;;;;;;;15.30;99.90;;;;;;5041769;28;19924;-62
2021/07/06 01:04:57;;;;;;;;;;;15.30;99.90;;;;;;5050909;28;19925;-63
2021/07/06 01:07:45;;;;;;;;;;;15.30;99.90;;;;;;5061179;28;19943;-64
2021/07/06 01:10:37;;;;;;;;;;;15.30;99.90;;;;;;5064159;28;19932;-63
2021/07/06 01:13:27;;;;;;;;;;;15.30;99.90;;;;;;5060033;28;19928;-62
2021/07/06 01:16:16;;;;;;;;;;;15.40;99.90;;;;;;5064278;28;19960;-62
2021/07/06 01:19:05;;;;;;;;;;;15.40;99.90;;;;;;5077947;28;19932;-63
2021/07/06 01:21:54;;;;;;;;;;;15.40;99.90;;;;;;5069761;28;19913;-62
2021/07/06 01:24:43;;;;;;;;;;;15.30;99.90;;;;;;5072298;28;19925;-62
2021/07/06 01:27:32;;;;;;;;;;;15.20;99.90;;;;;;5061425;28;19931;-63
2021/07/06 01:30:21;;;;;;;;;;;15.20;99.90;;;;;;5058073;28;19933;-61
2021/07/06 01:33:11;;;;;;;;;;;15.20;99.90;;;;;;5052378;28;20307;-62
2021/07/06 01:36:03;;;;;;;;;;;15.20;99.90;;;;;;5035334;28;19971;-62
2021/07/06 01:38:51;;;;;;;;;;;15.20;99.90;;;;;;5071329;28;19939;-62
2021/07/06 01:41:44;;;;;;;;;;;15.20;99.90;;;;;;5074398;28;19928;-62
2021/07/06 01:44:33;;;;;;;;;;;15.20;99.90;;;;;;5073410;28;19909;-62
2021/07/06 01:47:21;;;;;;;;;;;15.20;99.90;;;;;;5052696;28;19948;-62
2021/07/06 01:50:11;;;;;;;;;;;15.10;99.90;;;;;;5054064;28;19989;-62
2021/07/06 01:53:02;;;;;;;;;;;15.20;99.90;;;;;;5055572;28;19925;-61
2021/07/06 01:55:52;;;;;;;;;;;15.20;99.90;;;;;;5054571;28;19925;-62
2021/07/06 01:58:41;;;;;;;;;;;15.20;99.90;;;;;;5053896;28;20345;-64
2021/07/06 02:01:30;;;;;;;;;;;15.20;99.90;;;;;;5055106;28;19933;-62
2021/07/06 02:04:19;;;;;;;;;;;15.10;99.90;;;;;;5057222;28;19960;-62
2021/07/06 02:07:10;;;;;;;;;;;15.10;99.90;;;;;;5053840;28;19944;-61
2021/07/06 02:09:58;;;;;;;;;;;15.10;99.90;;;;;;5061203;28;19913;-63
2021/07/06 02:12:47;;;;;;;;;;;15.10;99.90;;;;;;5078539;28;20002;-62
2021/07/06 02:15:37;;;;;;;;;;;15.10;99.90;;;;;;5067842;28;19951;-62
2021/07/06 02:18:27;;;;;;;;;;;15.00;99.90;;;;;;5069601;28;19933;-62
2021/07/06 02:21:41;;;;;;;;;;;14.90;99.90;;;;;;5069838;28;19925;-62
2021/07/06 02:24:29;;;;;;;;;;;14.90;99.90;;;;;;5061950;28;19925;-62
2021/07/06 02:27:45;;;;;;;;;;;14.80;99.90;;;;;;5057567;28;19928;-62
2021/07/06 02:30:35;;;;;;;;;;;14.80;99.90;;;;;;5055528;28;20320;-62
2021/07/06 02:33:25;;;;;;;;;;;14.70;99.90;;;;;;5055224;28;20292;-62
2021/07/06 02:36:13;;;;;;;;;;;14.70;99.90;;;;;;5055038;28;20466;-63
2021/07/06 02:39:01;;;;;;;;;;;14.60;99.90;;;;;;5056741;28;19931;-62
2021/07/06 02:41:50;;;;;;;;;;;14.60;99.90;;;;;;5055225;28;19979;-62
2021/07/06 02:44:39;;;;;;;;;;;14.60;99.90;;;;;;5052885;28;20280;-62
2021/07/06 02:47:27;;;;;;;;;;;14.60;99.90;;;;;;5023102;28;20281;-61
2021/07/06 02:50:18;;;;;;;;;;;14.50;99.90;;;;;;5028697;28;19978;-61
2021/07/06 02:53:09;;;;;;;;;;;14.60;99.90;;;;;;5038091;28;20043;-61
2021/07/06 02:55:57;;;;;;;;;;;14.60;99.90;;;;;;5033384;28;19944;-62
2021/07/06 03:01:59;;;;;;;;;;;14.60;99.90;;;;;;5030145;28;19968;-62
2021/07/06 03:04:51;;;;;;;;;;;14.60;99.90;;;;;;5036849;28;20432;-62
2021/07/06 03:07:41;;;;;;;;;;;14.60;99.90;;;;;;5030980;28;19970;-62
2021/07/06 03:10:34;;;;;;;;;;;14.50;99.90;;;;;;5035939;28;19936;-63
2021/07/06 03:13:22;;;;;;;;;;;14.50;99.90;;;;;;5033527;28;20391;-61
2021/07/06 03:16:11;;;;;;;;;;;14.40;99.90;;;;;;5030493;28;19983;-62
2021/07/06 03:19:00;;;;;;;;;;;14.40;99.90;;;;;;5034189;28;20012;-62
2021/07/06 03:22:13;;;;;;;;;;;14.40;99.90;;;;;;5033527;28;20704;-62
2021/07/06 03:25:06;;;;;;;;;;;14.40;99.90;;;;;;5027818;28;19952;-62
2021/07/06 03:27:55;;;;;;;;;;;14.40;99.90;;;;;;5031673;28;19925;-64
2021/07/06 03:30:43;;;;;;;;;;;14.40;99.90;;;;;;5026507;28;19925;-62
2021/07/06 03:33:32;;;;;;;;;;;14.40;99.90;;;;;;5036552;28;19968;-62
2021/07/06 03:36:21;;;;;;;;;;;14.40;99.90;;;;;;5037513;28;20384;-61
2021/07/06 03:39:09;;;;;;;;;;;14.50;99.90;;;;;;5030367;28;20288;-61
2021/07/06 03:41:59;;;;;;;;;;;14.50;99.90;;;;;;5032641;28;19925;-62
2021/07/06 03:44:47;;;;;;;;;;;14.50;99.90;;;;;;5031184;28;19925;-62
2021/07/06 03:47:36;;;;;;;;;;;14.50;99.90;;;;;;5049361;28;19948;-61
2021/07/06 03:50:26;;;;;;;;;;;14.50;99.90;;;;;;5049202;28;19925;-61
2021/07/06 03:53:15;;;;;;;;;;;14.50;99.90;;;;;;5047722;28;19932;-62
2021/07/06 03:56:03;;;;;;;;;;;14.50;99.90;;;;;;5046990;28;19925;-61
2021/07/06 03:58:59;;;;;;;;;;;14.50;99.90;;;;;;5051050;28;20333;-63
2021/07/06 04:01:48;;;;;;;;;;;14.60;99.90;;;;;;5047857;28;20365;-62
2021/07/06 04:04:37;;;;;;;;;;;14.60;99.90;;;;;;5053697;28;20240;-63
2021/07/06 04:07:25;;;;;;;;;;;14.60;99.90;;;;;;5056287;28;19962;-61
2021/07/06 04:10:16;;;;;;;;;;;14.70;99.90;;;;;;5065649;28;19933;-62
2021/07/06 04:13:05;;;;;;;;;;;14.70;99.90;;;;;;5071065;28;19994;-61
2021/07/06 04:15:57;;;;;;;;;;;14.80;99.90;;;;;;5061846;28;20288;-62
2021/07/06 04:18:45;;;;;;;;;;;14.90;99.90;;;;;;5053175;28;19933;-62
2021/07/06 04:21:34;;;;;;;;;;;14.90;99.90;;;;;;5070025;28;19924;-62
2021/07/06 04:24:23;;;;;;;;;;;15.10;99.90;;;;;;5072370;28;19928;-62
2021/07/06 04:27:11;;;;;;;;;;;15.20;99.90;;;;;;5070706;28;19924;-63
2021/07/06 04:30:00;;;;;;;;;;;15.40;99.90;;;;;;5071724;28;20013;-62
2021/07/06 04:32:50;;;;;;;;;;;15.50;99.90;;;;;;5063613;28;20296;-62
2021/07/06 04:35:39;;;;;;;;;;;15.60;99.90;;;;;;5072002;28;19924;-62
2021/07/06 04:38:29;;;;;;;;;;;15.80;99.90;;;;;;5071681;28;19940;-62
2021/07/06 04:41:20;;;;;;;;;;;16.00;99.90;;;;;;5075913;28;19924;-64
2021/07/06 04:44:09;;;;;;;;;;;16.10;99.90;;;;;;5075122;28;19925;-62
2021/07/06 04:46:59;;;;;;;;;;;16.30;99.90;;;;;;5068007;28;19931;-62
2021/07/06 04:49:50;;;;;;;;;;;16.40;99.90;;;;;;5077545;28;19974;-62
2021/07/06 04:52:44;;;;;;;;;;;16.50;99.90;;;;;;5080336;28;19978;-62
2021/07/06 04:55:35;;;;;;;;;;;16.70;99.90;;;;;;5080306;28;19951;-62
2021/07/06 04:58:23;;;;;;;;;;;16.80;99.90;;;;;;5077690;28;20226;-62
2021/07/06 05:01:15;;;;;;;;;;;16.90;99.90;;;;;;5072924;28;20384;-63
2021/07/06 05:04:03;;;;;;;;;;;17.10;99.90;;;;;;5077226;28;19929;-63
2021/07/06 05:06:53;;;;;;;;;;;17.20;99.90;;;;;;5076037;28;19924;-62
2021/07/06 05:09:44;;;;;;;;;;;17.40;99.90;;;;;;5069748;28;19942;-63
2021/07/06 05:15:46;;;;;;;;;;;17.70;99.90;;;;;;5066298;28;20009;-63
2021/07/06 05:18:35;;;;;;;;;;;17.90;99.90;;;;;;5076235;28;19959;-63
2021/07/06 05:21:24;;;;;;;;;;;18.00;99.90;;;;;;5077827;28;19964;-63
2021/07/06 05:24:30;;;;;;;;;;;18.20;99.90;;;;;;5071324;28;19986;-62
2021/07/06 05:27:19;;;;;;;;;;;18.40;99.90;;;;;;5079588;28;19950;-63
2021/07/06 05:30:09;;;;;;;;;;;18.50;99.90;;;;;;5073710;28;20421;-63
2021/07/06 05:32:58;;;;;;;;;;;18.70;99.90;;;;;;5071778;28;19946;-65
2021/07/06 05:35:48;;;;;;;;;;;18.70;99.90;;;;;;5066713;28;19970;-62
2021/07/06 05:38:37;;;;;;;;;;;19.00;99.90;;;;;;5076238;28;20015;-66
2021/07/06 05:41:27;;;;;;;;;;;19.20;99.90;;;;;;5075457;28;20425;-63
2021/07/06 05:44:16;;;;;;;;;;;19.20;99.90;;;;;;5076078;28;20300;-63
2021/07/06 05:47:05;;;;;;;;;;;19.30;99.90;;;;;;5071043;28;19931;-64
2021/07/06 05:49:54;;;;;;;;;;;19.50;99.90;;;;;;5069210;28;19924;-62
2021/07/06 05:52:44;;;;;;;;;;;19.60;99.90;;;;;;5076887;28;20284;-61
2021/07/06 05:55:32;;;;;;;;;;;19.70;99.90;;;;;;5069064;28;20356;-62
2021/07/06 05:58:22;;;;;;;;;;;19.60;99.90;;;;;;5077662;28;20357;-62
2021/07/06 06:01:11;;;;;;;;;;;19.50;99.90;;;;;;5059645;28;20011;-62
2021/07/06 06:04:00;;;;;;;;;;;19.90;99.90;;;;;;5076793;28;19942;-63
2021/07/06 06:06:49;;;;;;;;;;;19.90;99.90;;;;;;5073752;28;19967;-63
2021/07/06 06:09:38;;;;;;;;;;;20.00;99.90;;;;;;5072944;28;20065;-62
2021/07/06 06:12:27;;;;;;;;;;;20.10;99.90;;;;;;5076326;28;19924;-63
2021/07/06 06:15:43;;;;;;;;;;;20.20;99.90;;;;;;5067464;28;20052;-62
2021/07/06 06:18:31;;;;;;;;;;;20.50;99.90;;;;;;5075878;28;19925;-62
2021/07/06 06:21:20;;;;;;;;;;;20.70;99.90;;;;;;5075456;28;20436;-62
2021/07/06 06:24:09;;;;;;;;;;;20.70;99.90;;;;;;5073945;28;19929;-62
2021/07/06 06:27:01;;;;;;;;;;;20.50;99.90;;;;;;5075265;28;19924;-61
2021/07/06 06:29:50;;;;;;;;;;;20.80;99.90;;;;;;5077304;28;20229;-62
2021/07/06 06:32:40;;;;;;;;;;;21.00;99.90;;;;;;5072189;28;19928;-62
2021/07/06 06:35:29;;;;;;;;;;;21.10;99.90;;;;;;5075647;28;20380;-62
2021/07/06 06:38:17;;;;;;;;;;;21.20;99.90;;;;;;5074304;28;19925;-62
2021/07/06 06:41:06;;;;;;;;;;;21.30;99.90;;;;;;5072194;28;20019;-62
2021/07/06 06:43:55;;;;;;;;;;;21.60;99.90;;;;;;5075522;28;19946;-62
2021/07/06 06:46:45;;;;;;;;;;;21.70;99.90;;;;;;5072348;28;19928;-63
2021/07/06 06:49:35;;;;;;;;;;;22.00;99.90;;;;;;5074588;28;19936;-61
2021/07/06 06:52:28;;;;;;;;;;;22.40;99.90;;;;;;5075729;28;19976;-61
2021/07/06 06:55:22;;;;;;;;;;;23.20;99.90;;;;;;5074709;28;20434;-62
2021/07/06 06:58:11;;;;;;;;;;;23.60;99.90;;;;;;5070789;28;19924;-62
2021/07/06 07:01:00;;;;;;;;;;;24.00;99.90;;;;;;5068265;28;19925;-62
2021/07/06 07:03:49;;;;;;;;;;;23.90;99.90;;;;;;5056199;28;19928;-62
2021/07/06 07:06:39;;;;;;;;;;;25.00;99.90;;;;;;5074674;28;20463;-62
2021/07/06 07:09:28;;;;;;;;;;;24.40;99.90;;;;;;5073762;28;19994;-62
2021/07/06 07:12:17;;;;;;;;;;;24.90;99.90;;;;;;5071180;28;19935;-62
2021/07/06 07:15:09;;;;;;;;;;;24.30;99.90;;;;;;5070188;28;19931;-62
2021/07/06 07:17:58;;;;;;;;;;;25.60;99.90;;;;;;5070392;28;20455;-62
2021/07/06 07:20:46;;;;;;;;;;;26.50;99.60;;;;;;5071728;28;20066;-63
2021/07/06 07:23:37;;;;;;;;;;;27.20;97.30;;;;;;5075627;28;19924;-65
2021/07/06 07:26:27;;;;;;;;;;;27.80;96.30;;;;;;5073196;28;20279;-62
2021/07/06 07:29:15;;;;;;;;;;;28.10;95.60;;;;;;5073200;28;20008;-63
2021/07/06 07:35:18;;;;;;;;;;;27.70;94.60;;;;;;5073139;28;19928;-63
2021/07/06 07:38:06;;;;;;;;;;;27.00;94.90;;;;;;5074171;28;20406;-63
2021/07/06 07:40:56;;;;;;;;;;;27.80;95.20;;;;;;5073085;28;19925;-63
2021/07/06 07:43:45;;;;;;;;;;;29.30;92.70;;;;;;5072181;28;20443;-63
2021/07/06 07:46:34;;;;;;;;;;;30.60;90.40;;;;;;5065420;28;19932;-62
2021/07/06 07:49:22;;;;;;;;;;;30.90;90.50;;;;;;5072845;28;19979;-63
2021/07/06 07:52:13;;;;;;;;;;;29.40;90.80;;;;;;5068343;28;20215;-63
2021/07/06 07:55:02;;;;;;;;;;;30.90;88.80;;;;;;5067903;28;19924;-66
2021/07/06 07:57:52;;;;;;;;;;;30.40;86.80;;;;;;5072440;28;19925;-64
2021/07/06 08:00:41;;;;;;;;;;;32.10;81.80;;;;;;5070294;28;20406;-63
2021/07/06 08:03:30;;;;;;;;;;;32.80;77.70;;;;;;5073174;28;19954;-63
2021/07/06 08:06:18;;;;;;;;;;;32.90;77.50;;;;;;5071171;28;19930;-64
2021/07/06 08:09:08;;;;;;;;;;;32.50;75.50;;;;;;5075066;28;20061;-63
2021/07/06 08:11:56;;;;;;;;;;;32.40;74.30;;;;;;5063490;28;20018;-64
2021/07/06 08:14:48;;;;;;;;;;;30.60;79.40;;;;;;5078905;28;19986;-64
2021/07/06 08:17:37;;;;;;;;;;;30.00;81.50;;;;;;5071837;28;19931;-64
2021/07/06 08:20:25;;;;;;;;;;;32.10;80.80;;;;;;5069998;28;19935;-64
2021/07/06 08:23:14;;;;;;;;;;;32.10;75.20;;;;;;5072926;28;19928;-64
2021/07/06 08:26:02;;;;;;;;;;;32.10;75.50;;;;;;5068254;28;19931;-65
2021/07/06 08:28:52;;;;;;;;;;;33.10;75.10;;;;;;5073228;28;20384;-64
2021/07/06 08:31:42;;;;;;;;;;;33.70;71.90;;;;;;5068926;28;19951;-64
2021/07/06 08:34:31;;;;;;;;;;;31.70;74.50;;;;;;5073943;28;19924;-63
2021/07/06 08:37:19;;;;;;;;;;;31.00;79.20;;;;;;5072344;28;20376;-64
2021/07/06 08:40:09;;;;;;;;;;;31.30;77.90;;;;;;5069488;28;19932;-63
2021/07/06 08:46:14;;;;;;;;;;;32.50;75.50;;;;;;5066172;28;19998;-63
2021/07/06 08:49:04;;;;;;;;;;;32.50;72.00;;;;;;5072039;28;19924;-64
2021/07/06 08:51:53;;;;;;;;;;;33.60;70.10;;;;;;5074327;28;19925;-64
2021/07/06 08:54:41;;;;;;;;;;;34.70;67.30;;;;;;5072544;28;20088;-66
2021/07/06 08:57:30;;;;;;;;;;;34.10;67.60;;;;;;5071326;28;19930;-64
2021/07/06 09:00:20;;;;;;;;;;;35.40;65.20;;;;;;5066829;28;19928;-64
2021/07/06 09:03:09;;;;;;;;;;;35.00;62.70;;;;;;5072925;28;19924;-64
2021/07/06 09:06:06;;;;;;;;;;;34.90;63.50;;;;;;5070247;28;19932;-63
2021/07/06 09:09:10;;;;;;;;;;;33.20;64.20;;;;;;5070869;28;19994;-64
2021/07/06 09:12:00;;;;;;;;;;;31.90;70.00;;;;;;5063274;28;20047;-65
2021/07/06 09:14:49;;;;;;;;;;;31.90;69.70;;;;;;5069606;28;20662;-63
2021/07/06 09:17:38;;;;;;;;;;;30.50;73.00;;;;;;5070556;28;19924;-63
2021/07/06 09:20:27;;;;;;;;;;;30.40;74.10;;;;;;5069630;28;19924;-63
2021/07/06 09:23:22;;;;;;;;;;;30.60;74.20;;;;;;5072394;28;19974;-63
2021/07/06 09:26:15;;;;;;;;;;;31.20;70.20;;;;;;5076370;28;19924;-63
2021/07/06 09:29:07;;;;;;;;;;;33.70;69.30;;;;;;5062484;28;19932;-63
2021/07/06 09:31:59;;;;;;;;;;;34.40;64.70;;;;;;5070406;28;20276;-64
2021/07/06 09:34:48;;;;;;;;;;;33.60;68.10;;;;;;5076212;28;20683;-64
2021/07/06 09:37:44;;;;;;;;;;;32.10;72.10;;;;;;5071284;28;19925;-63
2021/07/06 09:40:36;;;;;;;;;;;31.60;72.70;;;;;;5078578;28;19925;-63
2021/07/06 09:43:26;;;;;;;;;;;30.20;77.10;;;;;;5074511;28;19935;-64
2021/07/06 09:46:15;;;;;;;;;;;29.80;78.10;;;;;;5070214;28;20261;-63
2021/07/06 09:49:03;;;;;;;;;;;30.60;75.20;;;;;;5076731;28;19924;-63
2021/07/06 09:52:13;;;;;;;;;;;29.10;79.20;;;;;;5085031;28;19960;-64
2021/07/06 09:55:06;;;;;;;;;;;28.40;81.80;;;;;;5095112;28;19924;-64
2021/07/06 09:57:56;;;;;;;;;;;28.40;84.70;;;;;;5091908;28;19924;-64
2021/07/06 10:00:45;;;;;;;;;;;28.30;84.40;;;;;;5094150;28;19987;-64
2021/07/06 10:03:35;;;;;;;;;;;28.20;86.30;;;;;;5085711;28;19954;-64
2021/07/06 10:06:25;;;;;;;;;;;28.30;87.00;;;;;;5090862;28;19912;-64
2021/07/06 10:09:13;;;;;;;;;;;28.70;87.00;;;;;;5093226;28;19951;-64
2021/07/06 10:12:03;;;;;;;;;;;28.60;85.70;;;;;;5081976;28;19924;-65
2021/07/06 10:14:55;;;;;;;;;;;28.80;85.40;;;;;;5087548;28;19972;-63
2021/07/06 10:18:05;;;;;;;;;;;29.00;85.60;;;;;;5081361;28;19924;-63
2021/07/06 10:20:54;;;;;;;;;;;28.40;86.10;;;;;;5093408;28;19964;-64
2021/07/06 10:23:44;;;;;;;;;;;28.80;87.30;;;;;;5092208;28;19924;-63
2021/07/06 10:26:34;;;;;;;;;;;28.90;87.60;;;;;;5083240;28;19982;-63
2021/07/06 10:29:31;;;;;;;;;;;28.90;85.90;;;;;;5095773;28;19927;-63
2021/07/06 10:32:38;;;;;;;;;;;30.00;83.70;;;;;;5103008;28;19928;-64
2021/07/06 10:35:47;;;;;;;;;;;28.40;85.70;;;;;;5096037;28;19931;-64
2021/07/06 10:38:41;;;;;;;;;;;30.20;83.80;;;;;;5093331;28;19942;-63
2021/07/06 10:41:48;;;;;;;;;;;30.30;82.30;;;;;;5066498;28;19925;-63
2021/07/06 10:44:39;;;;;;;;;;;30.20;81.70;;;;;;5074576;28;19924;-63
2021/07/06 10:47:35;;;;;;;;;;;29.60;84.50;;;;;;5072675;28;19939;-63
2021/07/06 10:50:41;;;;;;;;;;;30.00;86.20;;;;;;5078262;28;20013;-64
2021/07/06 10:53:32;;;;;;;;;;;30.50;83.70;;;;;;5074192;28;19925;-65
2021/07/06 10:56:34;;;;;;;;;;;30.20;82.40;;;;;;5069776;28;20062;-63
2021/07/06 10:59:23;;;;;;;;;;;29.50;85.20;;;;;;5074557;28;19932;-63
2021/07/06 11:02:36;;;;;;;;;;;29.30;85.80;;;;;;5073685;28;19994;-63
2021/07/06 11:05:31;;;;;;;;;;;29.20;86.20;;;;;;5071269;28;20355;-63
2021/07/06 11:08:38;;;;;;;;;;;29.50;86.50;;;;;;5073509;28;20395;-63
2021/07/06 11:14:48;;;;;;;;;;;29.60;85.20;;;;;;5071405;28;19932;-63
2021/07/06 11:17:38;;;;;;;;;;;29.90;84.30;;;;;;5071328;28;19925;-63
2021/07/06 11:20:31;;;;;;;;;;;30.20;84.90;;;;;;5072314;28;20353;-63
2021/07/06 11:23:22;;;;;;;;;;;30.20;82.60;;;;;;5071656;28;19928;-63
2021/07/06 11:29:26;;;;;;;;;;;30.10;84.90;;;;;;5072178;28;19925;-64
2021/07/06 11:32:17;;;;;;;;;;;30.30;85.70;;;;;;5077595;28;19925;-64
2021/07/06 11:35:07;;;;;;;;;;;30.50;82.90;;;;;;5078285;28;19976;-63
2021/07/06 11:37:55;;;;;;;;;;;29.60;81.70;;;;;;5081293;28;19924;-64
2021/07/06 11:40:46;;;;;;;;;;;30.00;84.90;;;;;;5075647;28;20015;-63
2021/07/06 11:43:35;;;;;;;;;;;30.10;84.20;;;;;;5077299;28;19943;-62
2021/07/06 11:46:27;;;;;;;;;;;29.80;83.10;;;;;;5076611;28;19935;-63
2021/07/06 11:49:20;;;;;;;;;;;29.80;84.60;;;;;;5075486;28;19970;-63
2021/07/06 11:52:10;;;;;;;;;;;29.00;85.10;;;;;;5069358;28;19928;-63
2021/07/06 11:54:59;;;;;;;;;;;28.30;90.70;;;;;;5070462;28;19964;-62
2021/07/06 11:57:51;;;;;;;;;;;27.50;92.30;;;;;;5072982;28;19964;-63
2021/07/06 12:00:41;;;;;;;;;;;27.00;93.50;;;;;;5072897;28;20011;-62
2021/07/06 12:03:31;;;;;;;;;;;26.80;94.40;;;;;;5074707;28;20020;-62
2021/07/06 12:06:21;;;;;;;;;;;26.80;95.50;;;;;;5069978;28;19944;-63
2021/07/06 12:09:10;;;;;;;;;;;26.50;95.50;;;;;;5074157;28;19935;-62
2021/07/06 12:12:07;;;;;;;;;;;26.40;96.10;;;;;;5072700;28;19935;-63
2021/07/06 12:14:55;;;;;;;;;;;26.40;96.50;;;;;;5077632;28;20002;-63
2021/07/06 12:17:49;;;;;;;;;;;26.00;96.90;;;;;;5082320;28;19928;-63
2021/07/06 12:20:38;;;;;;;;;;;25.90;97.10;;;;;;5085803;28;20003;-63
2021/07/06 12:23:27;;;;;;;;;;;25.90;97.70;;;;;;5073500;28;19962;-64
2021/07/06 12:29:33;;;;;;;;;;;26.20;97.10;;;;;;5079517;28;19947;-63
2021/07/06 12:32:24;;;;;;;;;;;26.40;96.00;;;;;;5086142;28;19952;-63
2021/07/06 12:35:18;;;;;;;;;;;26.40;95.80;;;;;;5080384;28;20335;-63
2021/07/06 12:38:07;;;;;;;;;;;26.40;94.90;;;;;;5075571;28;20013;-63
2021/07/06 12:40:56;;;;;;;;;;;26.20;95.20;;;;;;5073025;28;20253;-63
2021/07/06 12:43:55;;;;;;;;;;;26.20;95.60;;;;;;5089618;28;19927;-64
2021/07/06 12:46:44;;;;;;;;;;;26.40;96.10;;;;;;5081693;28;19925;-64
2021/07/06 12:49:34;;;;;;;;;;;26.60;95.60;;;;;;5095165;28;20031;-63
2021/07/06 12:52:29;;;;;;;;;;;26.80;95.60;;;;;;5082931;28;20024;-64
2021/07/06 12:55:21;;;;;;;;;;;26.90;95.00;;;;;;5086835;28;19959;-64
2021/07/06 12:58:11;;;;;;;;;;;26.80;95.60;;;;;;5071498;28;19929;-63
2021/07/06 13:00:59;;;;;;;;;;;26.80;95.10;;;;;;5069297;28;19935;-63
2021/07/06 13:03:51;;;;;;;;;;;26.90;95.00;;;;;;5077799;28;19931;-63
2021/07/06 13:06:40;;;;;;;;;;;27.00;93.40;;;;;;5079675;28;19958;-63
2021/07/06 13:09:32;;;;;;;;;;;27.10;92.70;;;;;;5075962;28;20277;-64
2021/07/06 13:12:26;;;;;;;;;;;27.20;92.30;;;;;;5074509;28;19924;-63
2021/07/06 13:15:19;;;;;;;;;;;27.10;91.60;;;;;;5067208;28;19935;-63
2021/07/06 13:18:08;;;;;;;;;;;26.80;91.20;;;;;;5076376;28;19925;-63
2021/07/06 13:21:03;;;;;;;;;;;26.70;91.50;;;;;;5077038;28;19925;-63
2021/07/06 13:23:52;;;;;;;;;;;26.80;92.00;;;;;;5072245;28;19924;-63
2021/07/06 13:26:47;;;;;;;;;;;27.00;93.10;;;;;;5075611;28;19928;-63
2021/07/06 13:30:02;;;;;;;;;;;27.30;92.50;;;;;;5076163;28;19928;-63
2021/07/06 13:32:51;;;;;;;;;;;27.30;92.00;;;;;;5075644;28;20346;-63
2021/07/06 13:35:40;;;;;;;;;;;27.30;92.70;;;;;;5070334;28;19925;-62
2021/07/06 13:38:28;;;;;;;;;;;27.50;92.70;;;;;;5075558;28;19924;-62
2021/07/06 13:41:18;;;;;;;;;;;27.60;93.10;;;;;;5075574;28;19954;-62
2021/07/06 13:44:07;;;;;;;;;;;27.60;92.90;;;;;;5077780;28;19970;-62
2021/07/06 13:46:58;;;;;;;;;;;27.70;92.60;;;;;;5070008;28;20015;-63
2021/07/06 13:49:49;;;;;;;;;;;27.50;92.20;;;;;;5081896;28;19924;-63
2021/07/06 13:52:39;;;;;;;;;;;27.70;91.70;;;;;;5079496;28;19951;-63
2021/07/06 13:55:33;;;;;;;;;;;27.60;92.10;;;;;;5076918;28;20011;-64
2021/07/06 13:58:22;;;;;;;;;;;27.50;91.70;;;;;;5075623;28;19967;-62
2021/07/06 14:01:12;;;;;;;;;;;27.50;92.10;;;;;;5067939;28;19929;-63
2021/07/06 14:04:02;;;;;;;;;;;27.30;92.10;;;;;;5077523;28;19928;-64
2021/07/06 14:06:51;;;;;;;;;;;27.30;92.20;;;;;;5077996;28;19990;-63
2021/07/06 14:09:40;;;;;;;;;;;27.50;92.20;;;;;;5058722;28;20029;-63
2021/07/06 14:12:28;;;;;;;;;;;27.60;92.30;;;;;;5070533;28;19939;-63
2021/07/06 14:15:18;;;;;;;;;;;27.60;92.60;;;;;;5063847;28;19925;-62
2021/07/06 14:18:07;;;;;;;;;;;27.80;91.40;;;;;;5075235;28;19933;-62
2021/07/06 14:21:07;;;;;;;;;;;27.70;91.20;;;;;;5075338;28;20015;-62
2021/07/06 14:23:55;;;;;;;;;;;27.60;91.60;;;;;;5072101;28;19948;-64
2021/07/06 14:29:57;;;;;;;;;;;27.30;91.00;;;;;;5074559;28;19931;-63
2021/07/06 14:32:46;;;;;;;;;;;26.90;91.80;;;;;;5072435;28;19935;-63
2021/07/06 14:35:35;;;;;;;;;;;26.90;92.20;;;;;;5058559;28;19930;-65
2021/07/06 14:38:26;;;;;;;;;;;26.90;92.30;;;;;;5077376;28;19932;-63
2021/07/06 14:41:14;;;;;;;;;;;26.80;92.30;;;;;;5075744;28;19928;-63
2021/07/06 14:44:03;;;;;;;;;;;26.90;92.20;;;;;;5074435;28;20291;-63
2021/07/06 14:46:53;;;;;;;;;;;26.80;92.10;;;;;;5069263;28;19976;-62
2021/07/06 14:49:42;;;;;;;;;;;26.80;92.70;;;;;;5070047;28;19928;-63
2021/07/06 14:52:31;;;;;;;;;;;26.80;93.10;;;;;;5074800;28;19925;-62
2021/07/06 14:55:22;;;;;;;;;;;26.70;92.90;;;;;;5071750;28;20065;-63
2021/07/06 14:58:11;;;;;;;;;;;26.40;92.20;;;;;;5073336;28;19929;-62
2021/07/06 15:01:00;;;;;;;;;;;26.10;92.40;;;;;;5074832;28;19977;-63
2021/07/06 15:03:49;;;;;;;;;;;25.90;92.60;;;;;;5071655;28;20843;-62
2021/07/06 15:06:38;;;;;;;;;;;25.70;93.00;;;;;;5070067;28;20395;-61
2021/07/06 15:09:28;;;;;;;;;;;25.50;93.90;;;;;;5072569;28;19931;-63
2021/07/06 15:12:18;;;;;;;;;;;25.30;94.60;;;;;;5075535;28;19925;-63
2021/07/06 15:15:08;;;;;;;;;;;25.20;95.20;;;;;;5065335;28;19962;-62
2021/07/06 15:17:57;;;;;;;;;;;25.10;95.50;;;;;;5073960;28;20370;-63
2021/07/06 15:20:45;;;;;;;;;;;25.20;95.60;;;;;;5074596;28;19946;-63
2021/07/06 15:23:35;;;;;;;;;;;25.20;95.60;;;;;;5071900;28;19924;-62
2021/07/06 15:26:24;;;;;;;;;;;25.20;95.40;;;;;;5068691;28;19924;-63
2021/07/06 15:29:14;;;;;;;;;;;25.10;95.50;;;;;;5074106;28;20054;-62
2021/07/06 15:32:28;;;;;;;;;;;25.10;96.10;;;;;;5071002;28;19951;-63
2021/07/06 15:35:33;;;;;;;;;;;25.20;96.30;;;;;;5072910;28;19931;-63
2021/07/06 15:38:22;;;;;;;;;;;25.10;96.30;;;;;;5077763;28;19932;-62
2021/07/06 15:41:10;;;;;;;;;;;25.10;96.30;;;;;;5075090;28;19994;-62
2021/07/06 15:43:59;;;;;;;;;;;25.10;96.40;;;;;;5072527;28;19928;-62
2021/07/06 15:46:49;;;;;;;;;;;25.20;96.40;;;;;;5066471;28;19934;-64
2021/07/06 15:49:37;;;;;;;;;;;25.30;96.60;;;;;;5072180;28;19928;-63
2021/07/06 15:52:30;;;;;;;;;;;25.20;96.10;;;;;;5073467;28;19925;-62
2021/07/06 15:55:19;;;;;;;;;;;25.00;96.40;;;;;;5072328;28;19947;-62
2021/07/06 15:58:07;;;;;;;;;;;24.80;96.50;;;;;;5071043;28;19924;-63
2021/07/06 16:00:56;;;;;;;;;;;24.70;96.80;;;;;;5069185;28;19924;-62
2021/07/06 16:03:46;;;;;;;;;;;24.60;97.20;;;;;;5069862;28;19944;-62
2021/07/06 16:06:35;;;;;;;;;;;24.70;97.20;;;;;;5072788;28;20337;-62
2021/07/06 16:09:23;;;;;;;;;;;24.70;97.90;;;;;;5071280;28;19924;-62
2021/07/06 16:12:12;;;;;;;;;;;24.80;98.40;;;;;;5072205;28;19928;-63
2021/07/06 16:15:02;;;;;;;;;;;24.70;98.50;;;;;;5075211;28;19928;-64
2021/07/06 16:17:52;;;;;;;;;;;24.90;98.60;;;;;;5054695;28;19925;-62
2021/07/06 16:20:42;;;;;;;;;;;25.00;98.90;;;;;;5053951;28;20377;-62
2021/07/06 16:23:30;;;;;;;;;;;24.90;98.50;;;;;;5052220;28;19972;-62
2021/07/06 16:26:38;;;;;;;;;;;24.70;99.00;;;;;;5051822;28;20025;-63
2021/07/06 16:29:27;;;;;;;;;;;24.60;99.70;;;;;;5058616;28;20021;-63
2021/07/06 16:32:16;;;;;;;;;;;24.60;99.90;;;;;;5046889;28;19925;-63
2021/07/06 16:35:30;;;;;;;;;;;24.60;99.90;;;;;;5050645;28;19925;-64
2021/07/06 16:38:20;;;;;;;;;;;24.50;99.90;;;;;;5049511;28;19937;-63
2021/07/06 16:41:28;;;;;;;;;;;24.50;99.90;;;;;;5048270;28;19924;-64
2021/07/06 16:44:17;;;;;;;;;;;24.40;99.90;;;;;;5051799;28;19928;-63
2021/07/06 16:47:08;;;;;;;;;;;24.30;99.90;;;;;;5043244;28;19936;-63
2021/07/06 16:49:58;;;;;;;;;;;24.20;99.90;;;;;;5052048;28;19925;-63
2021/07/06 17:58:46;;;;;;;;;;;22.20;99.90;;;;;;5048161;28;19925;-63
2021/07/06 18:05:07;;;;;;;;;;;21.70;99.90;;;;;;5053437;28;19933;-63
2021/07/06 18:07:56;;;;;;;;;;;21.60;99.90;;;;;;5055815;28;19924;-62
2021/07/06 18:10:46;;;;;;;;;;;21.50;99.90;;;;;;5054560;28;19932;-63
2021/07/06 18:13:35;;;;;;;;;;;21.50;99.90;;;;;;5049540;28;19924;-63